sensor_id;sensor_type;location;lat;lon;timestamp;P1;durP1;ratioP1;P2;durP2;ratioP2
48871;SDS011;36154;51.674;7.824;2022-12-05T00:05:57;1.05;;;1.05;;
48871;SDS011;36154;51.674;7.824;2022-12-05T00:12:41;1.10;;;1.10;;
48871;SDS011;36154;51.674;7.824;2022-12-05T00:15:44;1.10;;;1.10;;
48871;SDS011;36154;51.674;7.824;2022-12-05T00:21:16;1.13;;;1.13;;
48871;SDS011;36154;51.674;7.824;2022-12-05T00:24:05;0.85;;;0.85;;
48871;SDS011;36154;51.674;7.824;2022-12-05T00:26:58;0.90;;;0.90;;
48871;SDS011;36154;51.674;7.824;2022-12-05T00:37:03;0.90;;;0.90;;
48871;SDS011;36154;51.674;7.824;2022-12-05T00:47:13;0.90;;;0.90;;
48871;SDS011;36154;51.674;7.824;2022-12-05T00:50:55;1.00;;;1.00;;
48871;SDS011;36154;51.674;7.824;2022-12-05T01:03:44;0.80;;;0.80;;
48871;SDS011;36154;51.674;7.824;2022-12-05T01:10:05;0.60;;;0.60;;
48871;SDS011;36154;51.674;7.824;2022-12-05T01:13:28;0.70;;;0.70;;
48871;SDS011;36154;51.674;7.824;2022-12-05T01:17:38;0.80;;;0.80;;
48871;SDS011;36154;51.674;7.824;2022-12-05T01:20:57;0.70;;;0.70;;
48871;SDS011;36154;51.674;7.824;2022-12-05T01:24:13;0.90;;;0.90;;
48871;SDS011;36154;51.674;7.824;2022-12-05T01:30:44;0.60;;;0.60;;
48871;SDS011;36154;51.674;7.824;2022-12-05T01:41:14;0.70;;;0.70;;
48871;SDS011;36154;51.674;7.824;2022-12-05T01:51:12;0.80;;;0.80;;
48871;SDS011;36154;51.674;7.824;2022-12-05T02:01:06;0.80;;;0.80;;
48871;SDS011;36154;51.674;7.824;2022-12-05T02:04:30;0.70;;;0.70;;
48871;SDS011;36154;51.674;7.824;2022-12-05T02:07:54;0.68;;;0.60;;
48871;SDS011;36154;51.674;7.824;2022-12-05T02:11:04;0.50;;;0.50;;
48871;SDS011;36154;51.674;7.824;2022-12-05T02:44:33;0.80;;;0.80;;
48871;SDS011;36154;51.674;7.824;2022-12-05T02:47:49;0.68;;;0.60;;
48871;SDS011;36154;51.674;7.824;2022-12-05T02:51:21;0.70;;;0.70;;
48871;SDS011;36154;51.674;7.824;2022-12-05T03:01:46;0.80;;;0.80;;
48871;SDS011;36154;51.674;7.824;2022-12-05T03:25:26;0.70;;;0.70;;
48871;SDS011;36154;51.674;7.824;2022-12-05T03:32:11;0.60;;;0.60;;
48871;SDS011;36154;51.674;7.824;2022-12-05T04:20:52;1.00;;;1.00;;
48871;SDS011;36154;51.674;7.824;2022-12-05T04:30:29;1.05;;;1.05;;
48871;SDS011;36154;51.674;7.824;2022-12-05T04:36:46;0.70;;;0.70;;
48871;SDS011;36154;51.674;7.824;2022-12-05T04:46:53;0.88;;;0.88;;
48871;SDS011;36154;51.674;7.824;2022-12-05T04:49:45;0.85;;;0.85;;
48871;SDS011;36154;51.674;7.824;2022-12-05T04:56:13;0.80;;;0.80;;
48871;SDS011;36154;51.674;7.824;2022-12-05T04:59:20;0.75;;;0.75;;
48871;SDS011;36154;51.674;7.824;2022-12-05T05:19:18;0.93;;;0.93;;
48871;SDS011;36154;51.674;7.824;2022-12-05T05:25:12;1.30;;;1.20;;
48871;SDS011;36154;51.674;7.824;2022-12-05T05:28:15;0.95;;;0.95;;
48871;SDS011;36154;51.674;7.824;2022-12-05T05:34:41;4.07;;;1.45;;
48871;SDS011;36154;51.674;7.824;2022-12-05T05:41:16;4.30;;;1.70;;
48871;SDS011;36154;51.674;7.824;2022-12-05T05:51:16;5.45;;;2.50;;
48871;SDS011;36154;51.674;7.824;2022-12-05T05:54:11;8.18;;;2.58;;
48871;SDS011;36154;51.674;7.824;2022-12-05T06:03:08;8.98;;;2.60;;
48871;SDS011;36154;51.674;7.824;2022-12-05T06:06:23;5.53;;;2.30;;
48871;SDS011;36154;51.674;7.824;2022-12-05T06:12:59;5.50;;;2.20;;
48871;SDS011;36154;51.674;7.824;2022-12-05T06:22:26;6.10;;;2.08;;
48871;SDS011;36154;51.674;7.824;2022-12-05T06:25:36;2.97;;;1.40;;
48871;SDS011;36154;51.674;7.824;2022-12-05T06:32:13;5.13;;;1.80;;
48871;SDS011;36154;51.674;7.824;2022-12-05T06:34:59;3.95;;;1.77;;
48871;SDS011;36154;51.674;7.824;2022-12-05T06:44:36;2.88;;;1.45;;
48871;SDS011;36154;51.674;7.824;2022-12-05T06:47:40;4.60;;;2.13;;
48871;SDS011;36154;51.674;7.824;2022-12-05T06:57:42;3.67;;;1.75;;
48871;SDS011;36154;51.674;7.824;2022-12-05T07:00:24;1.55;;;1.45;;
48871;SDS011;36154;51.674;7.824;2022-12-05T07:06:31;1.95;;;1.38;;
48871;SDS011;36154;51.674;7.824;2022-12-05T07:09:42;1.40;;;1.30;;
48871;SDS011;36154;51.674;7.824;2022-12-05T07:12:38;3.53;;;1.20;;
48871;SDS011;36154;51.674;7.824;2022-12-05T07:18:58;2.40;;;1.55;;
48871;SDS011;36154;51.674;7.824;2022-12-05T07:21:34;1.65;;;1.23;;
48871;SDS011;36154;51.674;7.824;2022-12-05T07:24:43;1.75;;;1.65;;
48871;SDS011;36154;51.674;7.824;2022-12-05T07:32:00;2.63;;;1.58;;
48871;SDS011;36154;51.674;7.824;2022-12-05T07:45:26;2.03;;;1.48;;
48871;SDS011;36154;51.674;7.824;2022-12-05T07:52:25;3.13;;;1.55;;
48871;SDS011;36154;51.674;7.824;2022-12-05T08:15:33;2.58;;;2.38;;
48871;SDS011;36154;51.674;7.824;2022-12-05T08:18:03;2.92;;;2.72;;
48871;SDS011;36154;51.674;7.824;2022-12-05T08:20:30;3.97;;;3.00;;
48871;SDS011;36154;51.674;7.824;2022-12-05T08:29:18;3.33;;;3.00;;
48871;SDS011;36154;51.674;7.824;2022-12-05T08:33:02;2.92;;;2.72;;
48871;SDS011;36154;51.674;7.824;2022-12-05T08:36:37;3.10;;;2.80;;
48871;SDS011;36154;51.674;7.824;2022-12-05T08:46:59;2.70;;;2.50;;
48871;SDS011;36154;51.674;7.824;2022-12-05T08:50:06;2.67;;;2.15;;
48871;SDS011;36154;51.674;7.824;2022-12-05T08:55:51;3.10;;;2.65;;
48871;SDS011;36154;51.674;7.824;2022-12-05T08:59:09;4.63;;;2.90;;
48871;SDS011;36154;51.674;7.824;2022-12-05T09:09:24;2.78;;;2.58;;
48871;SDS011;36154;51.674;7.824;2022-12-05T09:13:09;5.60;;;3.30;;
48871;SDS011;36154;51.674;7.824;2022-12-05T09:16:12;15.25;;;4.45;;
48871;SDS011;36154;51.674;7.824;2022-12-05T09:18:48;11.52;;;3.72;;
48871;SDS011;36154;51.674;7.824;2022-12-05T09:21:51;10.65;;;4.70;;
48871;SDS011;36154;51.674;7.824;2022-12-05T09:28:24;10.07;;;4.68;;
48871;SDS011;36154;51.674;7.824;2022-12-05T09:31:20;6.55;;;3.83;;
48871;SDS011;36154;51.674;7.824;2022-12-05T09:34:12;6.68;;;3.22;;
48871;SDS011;36154;51.674;7.824;2022-12-05T09:37:11;8.18;;;4.07;;
48871;SDS011;36154;51.674;7.824;2022-12-05T09:39:47;4.50;;;3.58;;
48871;SDS011;36154;51.674;7.824;2022-12-05T09:42:52;7.13;;;3.85;;
48871;SDS011;36154;51.674;7.824;2022-12-05T09:45:53;7.18;;;3.47;;
48871;SDS011;36154;51.674;7.824;2022-12-05T09:48:30;5.95;;;3.50;;
48871;SDS011;36154;51.674;7.824;2022-12-05T09:51:11;9.40;;;3.33;;
48871;SDS011;36154;51.674;7.824;2022-12-05T09:53:46;5.70;;;3.00;;
48871;SDS011;36154;51.674;7.824;2022-12-05T09:56:43;3.58;;;2.72;;
48871;SDS011;36154;51.674;7.824;2022-12-05T09:59:14;4.57;;;2.90;;
48871;SDS011;36154;51.674;7.824;2022-12-05T10:05:32;4.75;;;2.65;;
48871;SDS011;36154;51.674;7.824;2022-12-05T10:15:25;2.22;;;2.10;;
48871;SDS011;36154;51.674;7.824;2022-12-05T10:25:05;3.10;;;2.80;;
48871;SDS011;36154;51.674;7.824;2022-12-05T10:30:44;3.85;;;3.15;;
48871;SDS011;36154;51.674;7.824;2022-12-05T10:33:40;6.78;;;2.83;;
48871;SDS011;36154;51.674;7.824;2022-12-05T10:37:01;6.20;;;3.38;;
48871;SDS011;36154;51.674;7.824;2022-12-05T10:40:25;3.00;;;2.60;;
48871;SDS011;36154;51.674;7.824;2022-12-05T10:43:27;4.10;;;2.88;;
48871;SDS011;36154;51.674;7.824;2022-12-05T10:46:09;4.15;;;3.00;;
48871;SDS011;36154;51.674;7.824;2022-12-05T10:49:04;4.03;;;3.20;;
48871;SDS011;36154;51.674;7.824;2022-12-05T10:52:14;3.40;;;3.10;;
48871;SDS011;36154;51.674;7.824;2022-12-05T11:05:27;3.03;;;2.55;;
48871;SDS011;36154;51.674;7.824;2022-12-05T11:15:20;2.60;;;2.40;;
48871;SDS011;36154;51.674;7.824;2022-12-05T11:17:53;3.60;;;2.20;;
48871;SDS011;36154;51.674;7.824;2022-12-05T11:20:47;2.70;;;2.13;;
48871;SDS011;36154;51.674;7.824;2022-12-05T11:26:37;2.20;;;2.00;;
48871;SDS011;36154;51.674;7.824;2022-12-05T11:30:04;2.50;;;2.30;;
48871;SDS011;36154;51.674;7.824;2022-12-05T11:39:36;2.42;;;2.22;;
48871;SDS011;36154;51.674;7.824;2022-12-05T11:49:24;2.25;;;2.10;;
48871;SDS011;36154;51.674;7.824;2022-12-05T11:58:47;1.90;;;1.80;;
48871;SDS011;36154;51.674;7.824;2022-12-05T12:04:43;1.80;;;1.70;;
48871;SDS011;36154;51.674;7.824;2022-12-05T12:11:03;2.20;;;1.67;;
48871;SDS011;36154;51.674;7.824;2022-12-05T12:20:14;2.15;;;2.05;;
48871;SDS011;36154;51.674;7.824;2022-12-05T12:32:50;2.08;;;1.98;;
48871;SDS011;36154;51.674;7.824;2022-12-05T12:35:58;1.80;;;1.70;;
48871;SDS011;36154;51.674;7.824;2022-12-05T12:42:39;1.98;;;1.88;;
48871;SDS011;36154;51.674;7.824;2022-12-05T12:52:19;1.65;;;1.55;;
48871;SDS011;36154;51.674;7.824;2022-12-05T12:55:41;2.05;;;1.92;;
48871;SDS011;36154;51.674;7.824;2022-12-05T13:02:26;1.92;;;1.73;;
48871;SDS011;36154;51.674;7.824;2022-12-05T13:09:11;1.40;;;1.40;;
48871;SDS011;36154;51.674;7.824;2022-12-05T13:19:25;1.58;;;1.48;;
48871;SDS011;36154;51.674;7.824;2022-12-05T13:22:24;2.00;;;1.90;;
48871;SDS011;36154;51.674;7.824;2022-12-05T13:25:58;1.70;;;1.60;;
48871;SDS011;36154;51.674;7.824;2022-12-05T13:32:03;1.45;;;1.35;;
48871;SDS011;36154;51.674;7.824;2022-12-05T13:38:51;1.45;;;1.33;;
48871;SDS011;36154;51.674;7.824;2022-12-05T13:45:26;1.60;;;1.50;;
48871;SDS011;36154;51.674;7.824;2022-12-05T13:51:38;1.80;;;1.70;;
48871;SDS011;36154;51.674;7.824;2022-12-05T13:54:24;1.88;;;1.77;;
48871;SDS011;36154;51.674;7.824;2022-12-05T14:07:02;1.80;;;1.70;;
48871;SDS011;36154;51.674;7.824;2022-12-05T14:10:12;1.50;;;1.40;;
48871;SDS011;36154;51.674;7.824;2022-12-05T14:16:56;1.70;;;1.52;;
48871;SDS011;36154;51.674;7.824;2022-12-05T14:33:28;81.57;;;36.78;;
48871;SDS011;36154;51.674;7.824;2022-12-05T14:36:20;71.03;;;31.52;;
48871;SDS011;36154;51.674;7.824;2022-12-05T14:46:32;68.07;;;32.38;;
48871;SDS011;36154;51.674;7.824;2022-12-05T14:59:26;81.25;;;43.08;;
48871;SDS011;36154;51.674;7.824;2022-12-05T15:05:29;50.85;;;25.42;;
48871;SDS011;36154;51.674;7.824;2022-12-05T15:08:20;41.13;;;21.13;;
48871;SDS011;36154;51.674;7.824;2022-12-05T15:11:12;41.83;;;20.77;;
48871;SDS011;36154;51.674;7.824;2022-12-05T15:14:15;50.50;;;24.05;;
48871;SDS011;36154;51.674;7.824;2022-12-05T15:21:00;43.03;;;21.55;;
48871;SDS011;36154;51.674;7.824;2022-12-05T15:24:17;40.63;;;22.27;;
48871;SDS011;36154;51.674;7.824;2022-12-05T15:27:28;37.97;;;19.67;;
48871;SDS011;36154;51.674;7.824;2022-12-05T15:30:26;36.92;;;18.98;;
48871;SDS011;36154;51.674;7.824;2022-12-05T15:33:36;28.65;;;16.40;;
48871;SDS011;36154;51.674;7.824;2022-12-05T15:36:15;38.83;;;20.42;;
48871;SDS011;36154;51.674;7.824;2022-12-05T15:38:42;32.00;;;18.15;;
48871;SDS011;36154;51.674;7.824;2022-12-05T15:41:15;33.67;;;17.63;;
48871;SDS011;36154;51.674;7.824;2022-12-05T15:43:41;32.42;;;17.70;;
48871;SDS011;36154;51.674;7.824;2022-12-05T15:46:19;28.88;;;15.88;;
48871;SDS011;36154;51.674;7.824;2022-12-05T15:48:55;28.77;;;15.23;;
48871;SDS011;36154;51.674;7.824;2022-12-05T15:51:24;30.15;;;15.13;;
48871;SDS011;36154;51.674;7.824;2022-12-05T15:56:49;22.83;;;12.90;;
48871;SDS011;36154;51.674;7.824;2022-12-05T15:59:25;23.92;;;13.57;;
48871;SDS011;36154;51.674;7.824;2022-12-05T16:02:00;25.67;;;13.85;;
48871;SDS011;36154;51.674;7.824;2022-12-05T16:04:42;20.95;;;12.63;;
48871;SDS011;36154;51.674;7.824;2022-12-05T16:07:11;19.95;;;11.70;;
48871;SDS011;36154;51.674;7.824;2022-12-05T16:09:39;21.70;;;11.65;;
48871;SDS011;36154;51.674;7.824;2022-12-05T16:14:51;19.48;;;11.18;;
48871;SDS011;36154;51.674;7.824;2022-12-05T16:17:19;15.43;;;10.18;;
48871;SDS011;36154;51.674;7.824;2022-12-05T16:19:45;19.35;;;9.88;;
48871;SDS011;36154;51.674;7.824;2022-12-05T16:24:40;15.37;;;9.40;;
48871;SDS011;36154;51.674;7.824;2022-12-05T16:27:33;15.98;;;8.95;;
48871;SDS011;36154;51.674;7.824;2022-12-05T16:30:18;12.98;;;8.48;;
48871;SDS011;36154;51.674;7.824;2022-12-05T16:32:46;13.75;;;8.65;;
48871;SDS011;36154;51.674;7.824;2022-12-05T16:40:59;13.07;;;7.93;;
48871;SDS011;36154;51.674;7.824;2022-12-05T16:45:54;15.80;;;9.93;;
48871;SDS011;36154;51.674;7.824;2022-12-05T16:48:23;11.82;;;8.02;;
48871;SDS011;36154;51.674;7.824;2022-12-05T16:53:37;19.27;;;10.18;;
48871;SDS011;36154;51.674;7.824;2022-12-05T16:56:10;12.40;;;8.10;;
48871;SDS011;36154;51.674;7.824;2022-12-05T16:58:39;19.45;;;8.88;;
48871;SDS011;36154;51.674;7.824;2022-12-05T17:01:05;24.02;;;9.45;;
48871;SDS011;36154;51.674;7.824;2022-12-05T17:03:31;17.00;;;8.52;;
48871;SDS011;36154;51.674;7.824;2022-12-05T17:05:58;14.18;;;8.15;;
48871;SDS011;36154;51.674;7.824;2022-12-05T17:08:23;11.65;;;7.65;;
48871;SDS011;36154;51.674;7.824;2022-12-05T17:10:50;16.23;;;9.05;;
48871;SDS011;36154;51.674;7.824;2022-12-05T17:13:16;10.27;;;6.72;;
48871;SDS011;36154;51.674;7.824;2022-12-05T17:15:43;10.13;;;7.38;;
48871;SDS011;36154;51.674;7.824;2022-12-05T17:18:13;11.45;;;7.78;;
48871;SDS011;36154;51.674;7.824;2022-12-05T17:20:40;15.13;;;7.03;;
48871;SDS011;36154;51.674;7.824;2022-12-05T17:23:12;16.75;;;6.72;;
48871;SDS011;36154;51.674;7.824;2022-12-05T17:25:39;13.68;;;6.30;;
48871;SDS011;36154;51.674;7.824;2022-12-05T17:28:07;9.75;;;6.88;;
48871;SDS011;36154;51.674;7.824;2022-12-05T17:30:33;14.80;;;6.95;;
48871;SDS011;36154;51.674;7.824;2022-12-05T17:32:58;9.00;;;6.13;;
48871;SDS011;36154;51.674;7.824;2022-12-05T17:35:26;7.13;;;5.57;;
48871;SDS011;36154;51.674;7.824;2022-12-05T17:37:53;13.98;;;6.57;;
48871;SDS011;36154;51.674;7.824;2022-12-05T17:40:18;12.30;;;6.80;;
48871;SDS011;36154;51.674;7.824;2022-12-05T17:42:43;8.65;;;5.95;;
48871;SDS011;36154;51.674;7.824;2022-12-05T17:45:12;10.52;;;5.93;;
48871;SDS011;36154;51.674;7.824;2022-12-05T17:47:39;6.18;;;5.03;;
48871;SDS011;36154;51.674;7.824;2022-12-05T17:50:05;7.10;;;5.70;;
48871;SDS011;36154;51.674;7.824;2022-12-05T17:52:32;8.10;;;5.50;;
48871;SDS011;36154;51.674;7.824;2022-12-05T17:54:58;6.55;;;5.45;;
48871;SDS011;36154;51.674;7.824;2022-12-05T17:57:23;5.68;;;4.88;;
48871;SDS011;36154;51.674;7.824;2022-12-05T17:59:49;7.38;;;5.35;;
48871;SDS011;36154;51.674;7.824;2022-12-05T18:02:14;5.43;;;4.70;;
48871;SDS011;36154;51.674;7.824;2022-12-05T18:04:42;6.15;;;4.60;;
48871;SDS011;36154;51.674;7.824;2022-12-05T18:07:08;5.00;;;4.53;;
48871;SDS011;36154;51.674;7.824;2022-12-05T18:09:33;6.05;;;4.18;;
48871;SDS011;36154;51.674;7.824;2022-12-05T18:11:58;6.30;;;4.43;;
48871;SDS011;36154;51.674;7.824;2022-12-05T18:14:25;5.38;;;4.30;;
48871;SDS011;36154;51.674;7.824;2022-12-05T18:16:52;6.78;;;4.90;;
48871;SDS011;36154;51.674;7.824;2022-12-05T18:19:18;6.07;;;4.65;;
48871;SDS011;36154;51.674;7.824;2022-12-05T18:21:43;4.97;;;4.45;;
48871;SDS011;36154;51.674;7.824;2022-12-05T18:24:09;4.22;;;3.80;;
48871;SDS011;36154;51.674;7.824;2022-12-05T18:26:34;4.63;;;4.10;;
48871;SDS011;36154;51.674;7.824;2022-12-05T18:28:59;3.95;;;3.63;;
48871;SDS011;36154;51.674;7.824;2022-12-05T18:31:24;4.25;;;3.85;;
48871;SDS011;36154;51.674;7.824;2022-12-05T18:33:50;6.10;;;3.80;;
48871;SDS011;36154;51.674;7.824;2022-12-05T18:36:16;4.07;;;3.67;;
48871;SDS011;36154;51.674;7.824;2022-12-05T18:38:50;5.40;;;3.40;;
48871;SDS011;36154;51.674;7.824;2022-12-05T18:41:20;3.92;;;3.58;;
48871;SDS011;36154;51.674;7.824;2022-12-05T18:43:47;3.78;;;3.45;;
48871;SDS011;36154;51.674;7.824;2022-12-05T18:46:13;4.28;;;3.53;;
48871;SDS011;36154;51.674;7.824;2022-12-05T18:48:38;3.63;;;3.33;;
48871;SDS011;36154;51.674;7.824;2022-12-05T18:51:05;3.53;;;3.22;;
48871;SDS011;36154;51.674;7.824;2022-12-05T18:53:32;4.32;;;2.83;;
48871;SDS011;36154;51.674;7.824;2022-12-05T18:56:04;3.42;;;3.22;;
48871;SDS011;36154;51.674;7.824;2022-12-05T18:58:31;3.33;;;3.03;;
48871;SDS011;36154;51.674;7.824;2022-12-05T19:01:04;2.85;;;2.65;;
48871;SDS011;36154;51.674;7.824;2022-12-05T19:03:38;2.75;;;2.40;;
48871;SDS011;36154;51.674;7.824;2022-12-05T19:06:13;2.58;;;2.38;;
48871;SDS011;36154;51.674;7.824;2022-12-05T19:08:41;2.10;;;2.00;;
48871;SDS011;36154;51.674;7.824;2022-12-05T19:11:08;2.25;;;2.15;;
48871;SDS011;36154;51.674;7.824;2022-12-05T19:13:33;2.03;;;1.83;;
48871;SDS011;36154;51.674;7.824;2022-12-05T19:16:03;1.88;;;1.77;;
48871;SDS011;36154;51.674;7.824;2022-12-05T19:18:30;3.58;;;1.88;;
48871;SDS011;36154;51.674;7.824;2022-12-05T19:20:55;2.60;;;1.90;;
48871;SDS011;36154;51.674;7.824;2022-12-05T19:23:21;1.63;;;1.52;;
48871;SDS011;36154;51.674;7.824;2022-12-05T19:25:46;1.55;;;1.45;;
48871;SDS011;36154;51.674;7.824;2022-12-05T19:28:12;3.05;;;1.65;;
48871;SDS011;36154;51.674;7.824;2022-12-05T19:30:37;1.70;;;1.60;;
48871;SDS011;36154;51.674;7.824;2022-12-05T19:33:02;1.40;;;1.30;;
48871;SDS011;36154;51.674;7.824;2022-12-05T19:35:28;1.50;;;1.40;;
48871;SDS011;36154;51.674;7.824;2022-12-05T19:37:53;1.52;;;1.42;;
48871;SDS011;36154;51.674;7.824;2022-12-05T19:40:19;1.35;;;1.25;;
48871;SDS011;36154;51.674;7.824;2022-12-05T19:42:44;1.27;;;1.27;;
48871;SDS011;36154;51.674;7.824;2022-12-05T19:45:09;1.30;;;1.20;;
48871;SDS011;36154;51.674;7.824;2022-12-05T19:47:35;1.25;;;1.15;;
48871;SDS011;36154;51.674;7.824;2022-12-05T19:50:01;1.20;;;1.17;;
48871;SDS011;36154;51.674;7.824;2022-12-05T19:52:26;1.08;;;1.08;;
48871;SDS011;36154;51.674;7.824;2022-12-05T19:54:51;1.13;;;1.13;;
48871;SDS011;36154;51.674;7.824;2022-12-05T19:57:17;1.17;;;1.17;;
48871;SDS011;36154;51.674;7.824;2022-12-05T19:59:42;1.10;;;1.10;;
48871;SDS011;36154;51.674;7.824;2022-12-05T20:02:08;1.17;;;1.17;;
48871;SDS011;36154;51.674;7.824;2022-12-05T20:04:33;1.08;;;1.08;;
48871;SDS011;36154;51.674;7.824;2022-12-05T20:07:00;0.90;;;0.90;;
48871;SDS011;36154;51.674;7.824;2022-12-05T20:09:26;0.93;;;0.93;;
48871;SDS011;36154;51.674;7.824;2022-12-05T20:11:51;7.93;;;1.42;;
48871;SDS011;36154;51.674;7.824;2022-12-05T20:14:17;1.88;;;0.85;;
48871;SDS011;36154;51.674;7.824;2022-12-05T20:16:43;1.10;;;1.10;;
48871;SDS011;36154;51.674;7.824;2022-12-05T20:19:08;5.00;;;1.50;;
48871;SDS011;36154;51.674;7.824;2022-12-05T20:21:34;3.42;;;1.20;;
48871;SDS011;36154;51.674;7.824;2022-12-05T20:24:01;2.80;;;1.13;;
48871;SDS011;36154;51.674;7.824;2022-12-05T20:26:29;1.50;;;1.35;;
48871;SDS011;36154;51.674;7.824;2022-12-05T20:28:57;2.05;;;1.70;;
48871;SDS011;36154;51.674;7.824;2022-12-05T20:31:24;1.85;;;1.75;;
48871;SDS011;36154;51.674;7.824;2022-12-05T20:33:51;4.90;;;1.58;;
48871;SDS011;36154;51.674;7.824;2022-12-05T20:36:21;2.10;;;1.58;;
48871;SDS011;36154;51.674;7.824;2022-12-05T20:38:52;1.70;;;1.60;;
48871;SDS011;36154;51.674;7.824;2022-12-05T20:41:19;1.77;;;1.67;;
48871;SDS011;36154;51.674;7.824;2022-12-05T20:43:44;2.00;;;1.90;;
48871;SDS011;36154;51.674;7.824;2022-12-05T20:46:14;2.00;;;1.90;;
48871;SDS011;36154;51.674;7.824;2022-12-05T20:48:41;2.78;;;2.20;;
48871;SDS011;36154;51.674;7.824;2022-12-05T20:53:37;2.15;;;1.95;;
48871;SDS011;36154;51.674;7.824;2022-12-05T20:56:05;2.13;;;1.88;;
48871;SDS011;36154;51.674;7.824;2022-12-05T20:58:37;2.70;;;1.98;;
48871;SDS011;36154;51.674;7.824;2022-12-05T21:01:07;2.10;;;1.95;;
48871;SDS011;36154;51.674;7.824;2022-12-05T21:03:34;1.90;;;1.80;;
48871;SDS011;36154;51.674;7.824;2022-12-05T21:06:05;2.00;;;1.90;;
48871;SDS011;36154;51.674;7.824;2022-12-05T21:08:34;1.80;;;1.70;;
48871;SDS011;36154;51.674;7.824;2022-12-05T21:11:00;3.05;;;1.85;;
48871;SDS011;36154;51.674;7.824;2022-12-05T21:13:25;2.10;;;2.00;;
48871;SDS011;36154;51.674;7.824;2022-12-05T21:15:51;1.75;;;1.55;;
48871;SDS011;36154;51.674;7.824;2022-12-05T21:18:16;3.10;;;1.90;;
48871;SDS011;36154;51.674;7.824;2022-12-05T21:20:41;2.17;;;1.98;;
48871;SDS011;36154;51.674;7.824;2022-12-05T21:23:06;1.95;;;1.83;;
48871;SDS011;36154;51.674;7.824;2022-12-05T21:25:32;2.50;;;1.85;;
48871;SDS011;36154;51.674;7.824;2022-12-05T21:27:57;2.70;;;1.90;;
48871;SDS011;36154;51.674;7.824;2022-12-05T21:30:23;3.22;;;2.17;;
48871;SDS011;36154;51.674;7.824;2022-12-05T21:32:48;2.90;;;2.03;;
48871;SDS011;36154;51.674;7.824;2022-12-05T21:35:13;2.75;;;2.13;;
48871;SDS011;36154;51.674;7.824;2022-12-05T21:37:39;2.20;;;2.00;;
48871;SDS011;36154;51.674;7.824;2022-12-05T21:40:05;4.72;;;1.90;;
48871;SDS011;36154;51.674;7.824;2022-12-05T21:42:31;2.85;;;2.17;;
48871;SDS011;36154;51.674;7.824;2022-12-05T21:44:56;1.80;;;1.70;;
48871;SDS011;36154;51.674;7.824;2022-12-05T21:47:22;4.18;;;2.10;;
48871;SDS011;36154;51.674;7.824;2022-12-05T21:49:47;1.80;;;1.70;;
48871;SDS011;36154;51.674;7.824;2022-12-05T21:52:12;1.98;;;1.88;;
48871;SDS011;36154;51.674;7.824;2022-12-05T21:54:37;1.85;;;1.75;;
48871;SDS011;36154;51.674;7.824;2022-12-05T21:57:03;1.60;;;1.50;;
48871;SDS011;36154;51.674;7.824;2022-12-05T21:59:30;1.70;;;1.60;;
48871;SDS011;36154;51.674;7.824;2022-12-05T22:01:58;1.50;;;1.40;;
48871;SDS011;36154;51.674;7.824;2022-12-05T22:04:23;2.58;;;2.20;;
48871;SDS011;36154;51.674;7.824;2022-12-05T22:06:49;1.90;;;1.73;;
48871;SDS011;36154;51.674;7.824;2022-12-05T22:09:14;1.70;;;1.60;;
48871;SDS011;36154;51.674;7.824;2022-12-05T22:11:39;2.97;;;1.58;;
48871;SDS011;36154;51.674;7.824;2022-12-05T22:14:05;1.95;;;1.58;;
48871;SDS011;36154;51.674;7.824;2022-12-05T22:16:30;2.47;;;1.50;;
48871;SDS011;36154;51.674;7.824;2022-12-05T22:18:55;1.55;;;1.45;;
48871;SDS011;36154;51.674;7.824;2022-12-05T22:21:21;1.48;;;1.38;;
48871;SDS011;36154;51.674;7.824;2022-12-05T22:23:46;1.30;;;1.30;;
48871;SDS011;36154;51.674;7.824;2022-12-05T22:26:14;1.20;;;1.20;;
48871;SDS011;36154;51.674;7.824;2022-12-05T22:28:41;1.10;;;1.10;;
48871;SDS011;36154;51.674;7.824;2022-12-05T22:31:09;1.40;;;1.30;;
48871;SDS011;36154;51.674;7.824;2022-12-05T22:33:36;1.10;;;1.10;;
48871;SDS011;36154;51.674;7.824;2022-12-05T22:36:02;1.20;;;1.10;;
48871;SDS011;36154;51.674;7.824;2022-12-05T22:38:30;1.15;;;1.15;;
48871;SDS011;36154;51.674;7.824;2022-12-05T22:41:01;1.25;;;1.25;;
48871;SDS011;36154;51.674;7.824;2022-12-05T22:46:08;1.00;;;1.00;;
48871;SDS011;36154;51.674;7.824;2022-12-05T22:48:35;1.20;;;1.10;;
48871;SDS011;36154;51.674;7.824;2022-12-05T22:51:01;1.10;;;1.10;;
48871;SDS011;36154;51.674;7.824;2022-12-05T22:53:27;1.30;;;1.20;;
48871;SDS011;36154;51.674;7.824;2022-12-05T22:55:59;1.10;;;1.10;;
48871;SDS011;36154;51.674;7.824;2022-12-05T22:58:25;1.02;;;1.02;;
48871;SDS011;36154;51.674;7.824;2022-12-05T23:00:51;1.10;;;1.10;;
48871;SDS011;36154;51.674;7.824;2022-12-05T23:03:16;1.10;;;1.10;;
48871;SDS011;36154;51.674;7.824;2022-12-05T23:05:42;0.70;;;0.70;;
48871;SDS011;36154;51.674;7.824;2022-12-05T23:08:08;0.65;;;0.65;;
48871;SDS011;36154;51.674;7.824;2022-12-05T23:10:33;0.80;;;0.80;;
48871;SDS011;36154;51.674;7.824;2022-12-05T23:12:59;0.60;;;0.60;;
48871;SDS011;36154;51.674;7.824;2022-12-05T23:15:24;0.60;;;0.60;;
48871;SDS011;36154;51.674;7.824;2022-12-05T23:17:50;0.65;;;0.65;;
48871;SDS011;36154;51.674;7.824;2022-12-05T23:20:15;0.70;;;0.70;;
48871;SDS011;36154;51.674;7.824;2022-12-05T23:22:41;0.57;;;0.57;;
48871;SDS011;36154;51.674;7.824;2022-12-05T23:25:06;0.40;;;0.40;;
48871;SDS011;36154;51.674;7.824;2022-12-05T23:27:32;0.40;;;0.40;;
48871;SDS011;36154;51.674;7.824;2022-12-05T23:30:00;0.60;;;0.60;;
48871;SDS011;36154;51.674;7.824;2022-12-05T23:32:25;0.47;;;0.47;;
48871;SDS011;36154;51.674;7.824;2022-12-05T23:34:50;0.30;;;0.30;;
48871;SDS011;36154;51.674;7.824;2022-12-05T23:37:16;0.43;;;0.43;;
48871;SDS011;36154;51.674;7.824;2022-12-05T23:39:41;0.47;;;0.47;;
48871;SDS011;36154;51.674;7.824;2022-12-05T23:42:06;0.40;;;0.40;;
48871;SDS011;36154;51.674;7.824;2022-12-05T23:44:32;0.40;;;0.40;;
48871;SDS011;36154;51.674;7.824;2022-12-05T23:46:57;0.50;;;0.50;;
48871;SDS011;36154;51.674;7.824;2022-12-05T23:49:23;0.43;;;0.43;;
48871;SDS011;36154;51.674;7.824;2022-12-05T23:52:02;0.38;;;0.38;;
48871;SDS011;36154;51.674;7.824;2022-12-05T23:55:26;0.40;;;0.40;;
